Nathaniel B. Palmer — WBP3210 — position and weather

sailwx.info

Track history (hours):
 
Tides and Currents Weather Stations Pressure Air Temp Water Temp Dewpoint Dewpoint Depression Visibility Wind Speed Wind Dir Waves Ship Positions

Oceanographic research ship Nathaniel B. Palmer (USA)

Contact: Ethan Norris, ethan.norris.contractor@usap.gov

Detailed information on ship capabilities available from University of Delaware's Ocean Information Center and ARCUS's ALIAS (Arctic Logistics Information and Support) project.

Owner: OFFSHORE SERVICE VESSELS, GALLIANO, LA. More information available from US FCC via Universal Licensing System and Coast Guard Vessel Documentation Center.

Last reported at 2014-Nov-21 02:00 UTC. Time now 2014-Nov-21 04:28 UTC.
Position S 65°36' W 071°24'.

Type: Other ship. MMSI: 366610000.

Wind from 300 at 11 knots

Barometer 964.1 mb
Air temperature -1.9 ° C
Water temperature 1.7 ° C

Date/timePositionNaut miles runAvg speedWind from/ knotsBaromVisibWave heightAir tempDewpointWater temp
2014-Nov-21 02:00S 65°36' W 071°24'8 3.9 300 / 11964.1 -1.9 1.7
2014-Nov-21 00:00S 65°30' W 071°36'10 4.8 300 / 12963.7 -1.5 1.7
2014-Nov-20 22:00S 65°24' W 071°54'2 1.2 280 / 11963.2 -1.6 1.7
2014-Nov-20 20:00S 65°24' W 072°00'0 0.0 240 / 10962.8 -1.4 1.7
2014-Nov-20 18:00S 65°24' W 072°00'0 0.0 290 / 13962.5 -1.4 1.8
2014-Nov-20 16:00S 65°24' W 072°00'14 7.1 290 / 15962.8 -1.5 1.8
2014-Nov-20 14:00S 65°12' W 072°18'8 3.9 230 / 15963.5 -1.4 1.7
2014-Nov-20 12:00S 65°06' W 072°30'8 3.9 280 / 20964.8 -1.4 1.6
2014-Nov-20 10:00S 65°00' W 072°42'0 0.0 240 / 14965.3 -1.7 1.6
2014-Nov-20 08:00S 65°00' W 072°42'10 2.4 240 / 12965.8 -1.8 1.6
2014-Nov-20 04:00S 64°54' W 073°00'8 3.9 130 / 10967.0 -1.4 1.5
2014-Nov-20 02:00S 64°48' W 073°12'8 3.9 340 / 11968.8 -1.2 1.6
2014-Nov-20 00:00S 64°42' W 073°24'0 0.0 230 / 15970.6 -1.1 1.5
2014-Nov-19 22:00S 64°42' W 073°24'14 7.1 340 / 15972.5 -0.1 1.6
2014-Nov-19 20:00S 64°30' W 073°42'8 4.0 310 / 25975.0 -1.5 1.6
2014-Nov-19 18:00S 64°24' W 073°54'3 0.6 020 / 19978.2 -1.8 1.3
2014-Nov-19 14:00S 64°24' W 074°00'16 7.9 300 / 20983.1 -2.8 1.3
2014-Nov-19 12:00S 64°12' W 073°36'20 9.9 310 / 21985.0 -3.5 1.3
2014-Nov-19 10:00S 64°00' W 073°00'18 8.9 270 / 18986.1 -3.4 1.5
2014-Nov-19 08:00S 63°48' W 072°30'12 3.0 260 / 8986.8 -4.2 1.5
2014-Nov-19 04:00S 63°54' W 072°06'8 4.0 240 / 20985.3 -5.2 1.5
2014-Nov-19 02:00S 64°00' W 071°54'7 3.3 220 / 21983.0 -5.3 1.6
2014-Nov-19 00:00S 64°06' W 071°48'12 6.0 220 / 25980.0 -5.4 1.6
2014-Nov-18 22:00S 64°12' W 071°24'0 0.0 180 / 19978.8 -5.0 1.6
2014-Nov-18 20:00S 64°12' W 071°24'6 3.0 130 / 18977.5 -5.1 1.6
2014-Nov-18 18:00S 64°18' W 071°24'8 4.0 150 / 24975.6 -5.7 1.6
2014-Nov-18 16:00S 64°24' W 071°12'18 4.4 200 / 22972.7 -5.7 1.7
2014-Nov-18 12:00S 64°36' W 070°42'0 0.0 120 / 18970.2 -6.4 1.6
2014-Nov-18 10:00S 64°36' W 070°42'24 3.9 330 / 19969.2 -6.5 1.6
2014-Nov-18 04:00S 64°54' W 070°06'0 0.0 140 / 14967.3 -5.6 1.6
2014-Nov-18 02:00S 64°54' W 070°06'16 7.9 170 / 18966.8 -4.6 1.7
2014-Nov-18 00:00S 65°06' W 069°42'8 3.9 130 / 13966.7 -4.4 1.7
2014-Nov-17 22:00S 65°12' W 069°30'8 3.9 150 / 15966.7 -4.0 1.8
2014-Nov-17 20:00S 65°18' W 069°18'3 1.3 080 / 15966.9 -4.2 1.7
2014-Nov-17 18:00S 65°18' W 069°12'0 0.0 100 / 19967.2 -4.3 1.7
2014-Nov-17 16:00S 65°18' W 069°12'0 0.0 060 / 18967.5 -4.3 1.7
2014-Nov-17 14:00S 65°18' W 069°12'3 1.3 140 / 23967.8 -4.4 1.8
2014-Nov-17 12:00S 65°18' W 069°18'0 0.0 050 / 21968.9 -4.8 1.7
2014-Nov-17 10:00S 65°18' W 069°18'8 3.9 210 / 5969.1 -3.9 1.8
2014-Nov-17 08:00S 65°24' W 069°06'19 3.2 100 / 23970.9 -4.4 1.8
2014-Nov-17 02:00S 65°36' W 068°30'6 3.2 330 / 19975.5 -3.0 1.8
2014-Nov-17 00:00S 65°42' W 068°24'8 3.9 080 / 15976.5 -3.8 1.8
2014-Nov-16 22:00S 65°48' W 068°12'0 0.0 320 / 16978.2 -3.6 1.7
2014-Nov-16 20:00S 65°48' W 068°12'2 1.2 320 / 12979.1 -3.5 1.8
2014-Nov-16 18:00S 65°48' W 068°06'9 4.7 060 / 11979.4 -3.8 1.8
2014-Nov-16 16:00S 65°54' W 067°48'2 1.2 100 / 8979.8 -4.7 1.8
2014-Nov-16 14:00S 65°54' W 067°42'8 3.9 140 / 9980.4 -4.1 1.8
2014-Nov-16 12:00S 66°00' W 067°30'2 1.2 040 / 10980.0 -6.0
2014-Nov-16 10:00S 66°00' W 067°24'12 6.1 060 / 9979.4 -6.2
2014-Nov-16 08:00S 66°12' W 067°30'15 3.8 120 / 9978.6 -6.0 1.8
2014-Nov-16 04:00S 66°24' W 067°54'11 5.7 130 / 6977.2 -6.2 1.8
2014-Nov-16 02:00S 66°30' W 068°18'14 7.0 080 / 11976.9 -6.2 1.8
2014-Nov-16 00:00S 66°42' W 068°36'8 3.8 070 / 9976.7 -6.3 1.7
2014-Nov-15 22:00S 66°48' W 068°48'0 0.0 260 / 8976.5 -6.4 1.7
2014-Nov-15 20:00S 66°48' W 068°48'0 0.0 290 / 9976.6 -6.6 1.7
2014-Nov-15 18:00S 66°48' W 068°48'0 0.0 290 / 10976.6 -6.8 1.7
2014-Nov-15 16:00S 66°48' W 068°48'6 1.6 250 / 10976.7 -6.9 1.8
2014-Nov-15 12:00S 66°42' W 068°54'0 0.0 290 / 7976.9 -8.3 1.8
2014-Nov-15 10:00S 66°42' W 068°54'15 2.6 310 / 9977.5 -9.5 1.8
2014-Nov-15 04:00S 66°30' W 069°18'0 0.0 340 / 8978.3 -6.9 1.8
2014-Nov-15 02:00S 66°30' W 069°18'0 0.0 020 / 5978.9 -8.8 1.8
2014-Nov-15 00:00S 66°30' W 069°18'0 0.0 010 / 4979.1 -7.6 1.8
2014-Nov-14 22:00S 66°30' W 069°18'9 4.7 300 / 5979.4 -8.9 1.8
2014-Nov-14 20:00S 66°24' W 069°36'15 3.8 290 / 7979.7 -8.7 1.8
2014-Nov-14 16:00S 66°12' W 070°00'2 1.2 230 / 5980.3 -9.1 1.8
2014-Nov-14 14:00S 66°12' W 070°06'0 0.0 090 / 5980.4 -9.2 1.8
2014-Nov-14 12:00S 66°12' W 070°06'0 0.0 080 / 6980.6 -8.9 1.8
2014-Nov-14 10:00S 66°12' W 070°06'8 3.9 160 / 6980.6 -8.7 1.8
2014-Nov-14 08:00S 66°06' W 070°18'8 1.9 240 / 9980.5 -8.7 1.8
2014-Nov-14 04:00S 66°00' W 070°30'0 0.0 130 / 7979.9 -7.9
2014-Nov-14 02:00S 66°00' W 070°30'0 0.0 120 / 4980.0 -7.6
2014-Nov-14 00:00S 66°00' W 070°30'0 0.0 160 / 11980.1 -8.0
2014-Nov-13 22:00S 66°00' W 070°30'8 3.9 230 / 14980.0 -7.4 1.8
2014-Nov-13 20:00S 65°54' W 070°42'0 0.0 250 / 9980.0 -6.5 1.7
2014-Nov-13 18:00S 65°54' W 070°42'6 3.0 080 / 9979.8 -6.1 1.7
2014-Nov-13 16:00S 66°00' W 070°42'6 3.0 100 / 9979.2 -5.4 1.8
2014-Nov-13 14:00S 65°54' W 070°42'6 3.0 080 / 9978.9 -3.9 1.7
2014-Nov-13 12:00S 66°00' W 070°42'6 3.2 160 / 8978.9 -3.1
2014-Nov-13 10:00S 66°06' W 070°48'2 1.2 200 / 2979.1 -3.5 1.8
2014-Nov-13 08:00S 66°06' W 070°54'6 0.8 160 / 6979.3 -3.7 1.7
2014-Nov-13 00:00S 66°12' W 071°00'0 0.0 120 / 11979.3 -4.3 1.7
2014-Nov-12 22:00S 66°12' W 071°00'9 4.7 100 / 14979.4 -3.7 1.8
2014-Nov-12 20:00S 66°18' W 071°18'0 0.0 160 / 19979.3 -3.9 1.7
2014-Nov-12 18:00S 66°18' W 071°18'6 3.2 200 / 13978.7 -3.7 1.8
2014-Nov-12 16:00S 66°24' W 071°24'8 1.9 100 / 12978.3 -4.2 1.7
2014-Nov-12 12:00S 66°30' W 071°36'12 6.1 170 / 12978.0 -6.9 1.8
2014-Nov-12 10:00S 66°42' W 071°42'12 6.1 170 / 15978.4 -8.2 1.8
2014-Nov-12 08:00S 66°54' W 071°36'6 1.6 170 / 14978.9 -8.6 1.8
2014-Nov-12 04:00S 67°00' W 071°30'0 0.0 090 / 15978.4 -4.8 1.7
2014-Nov-12 02:00S 67°00' W 071°30'2 1.2 070 / 13978.4 -3.5 1.7
2014-Nov-12 00:00S 67°00' W 071°24'0 0.0 110 / 15977.8 -2.8 1.8
2014-Nov-11 22:00S 67°00' W 071°24'0 0.0 130 / 12977.0 -0.0 1.8
2014-Nov-11 20:00S 67°00' W 071°24'8 3.8 110 / 16975.7 0.9 1.8
2014-Nov-11 18:00S 66°54' W 071°36'8 3.8 130 / 20974.7 0.6 1.8
2014-Nov-11 16:00S 66°48' W 071°48'0 0.0 350 / 16974.4 -0.7 1.8
2014-Nov-11 14:00S 66°48' W 071°48'0 0.0 110 / 24973.9 -0.6 1.8
2014-Nov-11 12:00S 66°48' W 071°48'8 3.8 020 / 18973.8 -2.5 1.8
2014-Nov-11 10:00S 66°42' W 072°00'8 3.8 130 / 18972.0 -3.4 1.8
2014-Nov-11 08:00S 66°36' W 072°12'2 0.6 070 / 12971.2 -3.5 1.7
2014-Nov-11 04:00S 66°36' W 072°18'2 1.2 060 / 12972.0 -2.1 1.7
2014-Nov-11 02:00S 66°36' W 072°12'   040 / 14973.5 -1.4 1.7
Track history (hours):
 
Tides and Currents Weather Stations Pressure Air Temp Water Temp Dewpoint Dewpoint Depression Visibility Wind Speed Wind Dir Waves Ship Positions

Oceanographic research ship Nathaniel B. Palmer (USA)

Contact: Ethan Norris, ethan.norris.contractor@usap.gov

Detailed information on ship capabilities available from University of Delaware's Ocean Information Center and ARCUS's ALIAS (Arctic Logistics Information and Support) project.

Owner: OFFSHORE SERVICE VESSELS, GALLIANO, LA. More information available from US FCC via Universal Licensing System and Coast Guard Vessel Documentation Center.

Last reported at 2014-Nov-21 02:00 UTC. Time now 2014-Nov-21 04:28 UTC.
Position S 65°36' W 071°24'.

Type: Other ship. MMSI: 366610000.

Wind from 300 at 11 knots

Barometer 964.1 mb
Air temperature -1.9 ° C
Water temperature 1.7 ° C

Date/timePositionNaut miles runAvg speedWind from/ knotsBaromVisibWave heightAir tempDewpointWater temp
2014-Nov-21 02:00S 65°36' W 071°24'8 3.9 300 / 11964.1 -1.9 1.7
2014-Nov-21 00:00S 65°30' W 071°36'10 4.8 300 / 12963.7 -1.5 1.7
2014-Nov-20 22:00S 65°24' W 071°54'2 1.2 280 / 11963.2 -1.6 1.7
2014-Nov-20 20:00S 65°24' W 072°00'0 0.0 240 / 10962.8 -1.4 1.7
2014-Nov-20 18:00S 65°24' W 072°00'0 0.0 290 / 13962.5 -1.4 1.8
2014-Nov-20 16:00S 65°24' W 072°00'14 7.1 290 / 15962.8 -1.5 1.8
2014-Nov-20 14:00S 65°12' W 072°18'8 3.9 230 / 15963.5 -1.4 1.7
2014-Nov-20 12:00S 65°06' W 072°30'8 3.9 280 / 20964.8 -1.4 1.6
2014-Nov-20 10:00S 65°00' W 072°42'0 0.0 240 / 14965.3 -1.7 1.6
2014-Nov-20 08:00S 65°00' W 072°42'10 2.4 240 / 12965.8 -1.8 1.6
2014-Nov-20 04:00S 64°54' W 073°00'8 3.9 130 / 10967.0 -1.4 1.5
2014-Nov-20 02:00S 64°48' W 073°12'8 3.9 340 / 11968.8 -1.2 1.6
2014-Nov-20 00:00S 64°42' W 073°24'0 0.0 230 / 15970.6 -1.1 1.5
2014-Nov-19 22:00S 64°42' W 073°24'14 7.1 340 / 15972.5 -0.1 1.6
2014-Nov-19 20:00S 64°30' W 073°42'8 4.0 310 / 25975.0 -1.5 1.6
2014-Nov-19 18:00S 64°24' W 073°54'3 0.6 020 / 19978.2 -1.8 1.3
2014-Nov-19 14:00S 64°24' W 074°00'16 7.9 300 / 20983.1 -2.8 1.3
2014-Nov-19 12:00S 64°12' W 073°36'20 9.9 310 / 21985.0 -3.5 1.3
2014-Nov-19 10:00S 64°00' W 073°00'18 8.9 270 / 18986.1 -3.4 1.5
2014-Nov-19 08:00S 63°48' W 072°30'12 3.0 260 / 8986.8 -4.2 1.5
2014-Nov-19 04:00S 63°54' W 072°06'8 4.0 240 / 20985.3 -5.2 1.5
2014-Nov-19 02:00S 64°00' W 071°54'7 3.3 220 / 21983.0 -5.3 1.6
2014-Nov-19 00:00S 64°06' W 071°48'12 6.0 220 / 25980.0 -5.4 1.6
2014-Nov-18 22:00S 64°12' W 071°24'0 0.0 180 / 19978.8 -5.0 1.6
2014-Nov-18 20:00S 64°12' W 071°24'6 3.0 130 / 18977.5 -5.1 1.6
2014-Nov-18 18:00S 64°18' W 071°24'8 4.0 150 / 24975.6 -5.7 1.6
2014-Nov-18 16:00S 64°24' W 071°12'18 4.4 200 / 22972.7 -5.7 1.7
2014-Nov-18 12:00S 64°36' W 070°42'0 0.0 120 / 18970.2 -6.4 1.6
2014-Nov-18 10:00S 64°36' W 070°42'24 3.9 330 / 19969.2 -6.5 1.6
2014-Nov-18 04:00S 64°54' W 070°06'0 0.0 140 / 14967.3 -5.6 1.6
2014-Nov-18 02:00S 64°54' W 070°06'16 7.9 170 / 18966.8 -4.6 1.7
2014-Nov-18 00:00S 65°06' W 069°42'8 3.9 130 / 13966.7 -4.4 1.7
2014-Nov-17 22:00S 65°12' W 069°30'8 3.9 150 / 15966.7 -4.0 1.8
2014-Nov-17 20:00S 65°18' W 069°18'3 1.3 080 / 15966.9 -4.2 1.7
2014-Nov-17 18:00S 65°18' W 069°12'0 0.0 100 / 19967.2 -4.3 1.7
2014-Nov-17 16:00S 65°18' W 069°12'0 0.0 060 / 18967.5 -4.3 1.7
2014-Nov-17 14:00S 65°18' W 069°12'3 1.3 140 / 23967.8 -4.4 1.8
2014-Nov-17 12:00S 65°18' W 069°18'0 0.0 050 / 21968.9 -4.8 1.7
2014-Nov-17 10:00S 65°18' W 069°18'8 3.9 210 / 5969.1 -3.9 1.8
2014-Nov-17 08:00S 65°24' W 069°06'19 3.2 100 / 23970.9 -4.4 1.8
2014-Nov-17 02:00S 65°36' W 068°30'6 3.2 330 / 19975.5 -3.0 1.8
2014-Nov-17 00:00S 65°42' W 068°24'8 3.9 080 / 15976.5 -3.8 1.8
2014-Nov-16 22:00S 65°48' W 068°12'0 0.0 320 / 16978.2 -3.6 1.7
2014-Nov-16 20:00S 65°48' W 068°12'2 1.2 320 / 12979.1 -3.5 1.8
2014-Nov-16 18:00S 65°48' W 068°06'9 4.7 060 / 11979.4 -3.8 1.8
2014-Nov-16 16:00S 65°54' W 067°48'2 1.2 100 / 8979.8 -4.7 1.8
2014-Nov-16 14:00S 65°54' W 067°42'8 3.9 140 / 9980.4 -4.1 1.8
2014-Nov-16 12:00S 66°00' W 067°30'2 1.2 040 / 10980.0 -6.0
2014-Nov-16 10:00S 66°00' W 067°24'12 6.1 060 / 9979.4 -6.2
2014-Nov-16 08:00S 66°12' W 067°30'15 3.8 120 / 9978.6 -6.0 1.8
2014-Nov-16 04:00S 66°24' W 067°54'11 5.7 130 / 6977.2 -6.2 1.8
2014-Nov-16 02:00S 66°30' W 068°18'14 7.0 080 / 11976.9 -6.2 1.8
2014-Nov-16 00:00S 66°42' W 068°36'8 3.8 070 / 9976.7 -6.3 1.7
2014-Nov-15 22:00S 66°48' W 068°48'0 0.0 260 / 8976.5 -6.4 1.7
2014-Nov-15 20:00S 66°48' W 068°48'0 0.0 290 / 9976.6 -6.6 1.7
2014-Nov-15 18:00S 66°48' W 068°48'0 0.0 290 / 10976.6 -6.8 1.7
2014-Nov-15 16:00S 66°48' W 068°48'6 1.6 250 / 10976.7 -6.9 1.8
2014-Nov-15 12:00S 66°42' W 068°54'0 0.0 290 / 7976.9 -8.3 1.8
2014-Nov-15 10:00S 66°42' W 068°54'15 2.6 310 / 9977.5 -9.5 1.8
2014-Nov-15 04:00S 66°30' W 069°18'0 0.0 340 / 8978.3 -6.9 1.8
2014-Nov-15 02:00S 66°30' W 069°18'0 0.0 020 / 5978.9 -8.8 1.8
2014-Nov-15 00:00S 66°30' W 069°18'0 0.0 010 / 4979.1 -7.6 1.8
2014-Nov-14 22:00S 66°30' W 069°18'9 4.7 300 / 5979.4 -8.9 1.8
2014-Nov-14 20:00S 66°24' W 069°36'15 3.8 290 / 7979.7 -8.7 1.8
2014-Nov-14 16:00S 66°12' W 070°00'2 1.2 230 / 5980.3 -9.1 1.8
2014-Nov-14 14:00S 66°12' W 070°06'0 0.0 090 / 5980.4 -9.2 1.8
2014-Nov-14 12:00S 66°12' W 070°06'0 0.0 080 / 6980.6 -8.9 1.8
2014-Nov-14 10:00S 66°12' W 070°06'8 3.9 160 / 6980.6 -8.7 1.8
2014-Nov-14 08:00S 66°06' W 070°18'8 1.9 240 / 9980.5 -8.7 1.8
2014-Nov-14 04:00S 66°00' W 070°30'0 0.0 130 / 7979.9 -7.9
2014-Nov-14 02:00S 66°00' W 070°30'0 0.0 120 / 4980.0 -7.6
2014-Nov-14 00:00S 66°00' W 070°30'0 0.0 160 / 11980.1 -8.0
2014-Nov-13 22:00S 66°00' W 070°30'8 3.9 230 / 14980.0 -7.4 1.8
2014-Nov-13 20:00S 65°54' W 070°42'0 0.0 250 / 9980.0 -6.5 1.7
2014-Nov-13 18:00S 65°54' W 070°42'6 3.0 080 / 9979.8 -6.1 1.7
2014-Nov-13 16:00S 66°00' W 070°42'6 3.0 100 / 9979.2 -5.4 1.8
2014-Nov-13 14:00S 65°54' W 070°42'6 3.0 080 / 9978.9 -3.9 1.7
2014-Nov-13 12:00S 66°00' W 070°42'6 3.2 160 / 8978.9 -3.1
2014-Nov-13 10:00S 66°06' W 070°48'2 1.2 200 / 2979.1 -3.5 1.8
2014-Nov-13 08:00S 66°06' W 070°54'6 0.8 160 / 6979.3 -3.7 1.7
2014-Nov-13 00:00S 66°12' W 071°00'0 0.0 120 / 11979.3 -4.3 1.7
2014-Nov-12 22:00S 66°12' W 071°00'9 4.7 100 / 14979.4 -3.7 1.8
2014-Nov-12 20:00S 66°18' W 071°18'0 0.0 160 / 19979.3 -3.9 1.7
2014-Nov-12 18:00S 66°18' W 071°18'6 3.2 200 / 13978.7 -3.7 1.8
2014-Nov-12 16:00S 66°24' W 071°24'8 1.9 100 / 12978.3 -4.2 1.7
2014-Nov-12 12:00S 66°30' W 071°36'12 6.1 170 / 12978.0 -6.9 1.8
2014-Nov-12 10:00S 66°42' W 071°42'12 6.1 170 / 15978.4 -8.2 1.8
2014-Nov-12 08:00S 66°54' W 071°36'6 1.6 170 / 14978.9 -8.6 1.8
2014-Nov-12 04:00S 67°00' W 071°30'0 0.0 090 / 15978.4 -4.8 1.7
2014-Nov-12 02:00S 67°00' W 071°30'2 1.2 070 / 13978.4 -3.5 1.7
2014-Nov-12 00:00S 67°00' W 071°24'0 0.0 110 / 15977.8 -2.8 1.8
2014-Nov-11 22:00S 67°00' W 071°24'0 0.0 130 / 12977.0 -0.0 1.8
2014-Nov-11 20:00S 67°00' W 071°24'8 3.8 110 / 16975.7 0.9 1.8
2014-Nov-11 18:00S 66°54' W 071°36'8 3.8 130 / 20974.7 0.6 1.8
2014-Nov-11 16:00S 66°48' W 071°48'0 0.0 350 / 16974.4 -0.7 1.8
2014-Nov-11 14:00S 66°48' W 071°48'0 0.0 110 / 24973.9 -0.6 1.8
2014-Nov-11 12:00S 66°48' W 071°48'8 3.8 020 / 18973.8 -2.5 1.8
2014-Nov-11 10:00S 66°42' W 072°00'8 3.8 130 / 18972.0 -3.4 1.8
2014-Nov-11 08:00S 66°36' W 072°12'2 0.6 070 / 12971.2 -3.5 1.7
2014-Nov-11 04:00S 66°36' W 072°18'2 1.2 060 / 12972.0 -2.1 1.7
2014-Nov-11 02:00S 66°36' W 072°12'   040 / 14973.5 -1.4 1.7

Dump ship's entire track history